sensor_id;sensor_type;location;lat;lon;timestamp;temperature;humidity
45066;DHT22;30830;53.704;10.004;2023-03-08T00:01:30;-2.00;99.90
45066;DHT22;30830;53.704;10.004;2023-03-08T00:03:57;-2.00;99.90
45066;DHT22;30830;53.704;10.004;2023-03-08T00:06:24;-1.90;99.90
45066;DHT22;30830;53.704;10.004;2023-03-08T00:08:54;-1.90;99.90
45066;DHT22;30830;53.704;10.004;2023-03-08T00:11:19;-1.90;99.90
45066;DHT22;30830;53.704;10.004;2023-03-08T00:13:45;-1.80;99.90
45066;DHT22;30830;53.704;10.004;2023-03-08T00:16:11;-1.70;99.90
45066;DHT22;30830;53.704;10.004;2023-03-08T00:18:38;-1.70;99.90
45066;DHT22;30830;53.704;10.004;2023-03-08T00:21:10;-1.80;99.90
45066;DHT22;30830;53.704;10.004;2023-03-08T00:23:36;-1.80;99.90
45066;DHT22;30830;53.704;10.004;2023-03-08T00:26:02;-1.80;99.90
45066;DHT22;30830;53.704;10.004;2023-03-08T00:28:28;-1.70;99.90
45066;DHT22;30830;53.704;10.004;2023-03-08T00:31:02;-1.70;99.90
45066;DHT22;30830;53.704;10.004;2023-03-08T00:33:28;-1.70;99.90
45066;DHT22;30830;53.704;10.004;2023-03-08T00:38:25;-1.70;99.90
45066;DHT22;30830;53.704;10.004;2023-03-08T00:40:51;-1.60;99.90
45066;DHT22;30830;53.704;10.004;2023-03-08T00:43:17;-1.60;99.90
45066;DHT22;30830;53.704;10.004;2023-03-08T00:45:42;-1.60;99.90
45066;DHT22;30830;53.704;10.004;2023-03-08T00:48:08;-1.60;99.90
45066;DHT22;30830;53.704;10.004;2023-03-08T00:50:34;-1.60;99.90
45066;DHT22;30830;53.704;10.004;2023-03-08T00:52:59;-1.50;99.90
45066;DHT22;30830;53.704;10.004;2023-03-08T00:55:25;-1.60;99.90
45066;DHT22;30830;53.704;10.004;2023-03-08T00:57:50;-1.60;99.90
45066;DHT22;30830;53.704;10.004;2023-03-08T01:00:16;-1.60;99.90
45066;DHT22;30830;53.704;10.004;2023-03-08T01:02:42;-1.50;99.90
45066;DHT22;30830;53.704;10.004;2023-03-08T01:05:08;-1.50;99.90
45066;DHT22;30830;53.704;10.004;2023-03-08T01:07:34;-1.50;99.90
45066;DHT22;30830;53.704;10.004;2023-03-08T01:10:00;-1.50;99.90
45066;DHT22;30830;53.704;10.004;2023-03-08T01:12:25;-1.50;99.90
45066;DHT22;30830;53.704;10.004;2023-03-08T01:14:52;-1.50;99.90
45066;DHT22;30830;53.704;10.004;2023-03-08T01:17:18;-1.50;99.90
45066;DHT22;30830;53.704;10.004;2023-03-08T01:19:44;-1.60;99.90
45066;DHT22;30830;53.704;10.004;2023-03-08T01:22:10;-1.60;99.90
45066;DHT22;30830;53.704;10.004;2023-03-08T01:24:35;-1.60;99.90
45066;DHT22;30830;53.704;10.004;2023-03-08T01:27:01;-1.60;99.90
45066;DHT22;30830;53.704;10.004;2023-03-08T01:29:27;-1.70;99.90
45066;DHT22;30830;53.704;10.004;2023-03-08T01:31:53;-1.70;99.90
45066;DHT22;30830;53.704;10.004;2023-03-08T01:34:19;-1.70;99.90
45066;DHT22;30830;53.704;10.004;2023-03-08T01:36:45;-1.80;99.90
45066;DHT22;30830;53.704;10.004;2023-03-08T01:39:11;-1.80;99.90
45066;DHT22;30830;53.704;10.004;2023-03-08T01:41:37;-1.90;99.90
45066;DHT22;30830;53.704;10.004;2023-03-08T01:44:03;-1.90;99.90
45066;DHT22;30830;53.704;10.004;2023-03-08T01:51:43;-2.00;99.90
45066;DHT22;30830;53.704;10.004;2023-03-08T01:54:15;-2.00;99.90
45066;DHT22;30830;53.704;10.004;2023-03-08T01:56:42;-2.00;99.90
45066;DHT22;30830;53.704;10.004;2023-03-08T01:59:09;-2.00;99.90
45066;DHT22;30830;53.704;10.004;2023-03-08T02:01:36;-2.00;99.90
45066;DHT22;30830;53.704;10.004;2023-03-08T02:04:02;-2.10;99.90
45066;DHT22;30830;53.704;10.004;2023-03-08T02:06:28;-2.10;99.90
45066;DHT22;30830;53.704;10.004;2023-03-08T02:08:54;-2.10;99.90
45066;DHT22;30830;53.704;10.004;2023-03-08T02:11:20;-2.20;99.90
45066;DHT22;30830;53.704;10.004;2023-03-08T02:13:48;-2.20;99.90
45066;DHT22;30830;53.704;10.004;2023-03-08T02:16:15;-2.20;99.90
45066;DHT22;30830;53.704;10.004;2023-03-08T02:18:52;-2.30;99.90
45066;DHT22;30830;53.704;10.004;2023-03-08T02:21:18;-2.30;99.90
45066;DHT22;30830;53.704;10.004;2023-03-08T02:23:43;-2.30;99.90
45066;DHT22;30830;53.704;10.004;2023-03-08T02:26:09;-2.40;99.90
45066;DHT22;30830;53.704;10.004;2023-03-08T02:28:35;-2.40;99.90
45066;DHT22;30830;53.704;10.004;2023-03-08T02:31:01;-2.40;99.90
45066;DHT22;30830;53.704;10.004;2023-03-08T02:33:26;-2.50;99.90
45066;DHT22;30830;53.704;10.004;2023-03-08T02:35:52;-2.50;99.90
45066;DHT22;30830;53.704;10.004;2023-03-08T02:38:19;-2.50;99.90
45066;DHT22;30830;53.704;10.004;2023-03-08T02:40:45;-2.50;99.90
45066;DHT22;30830;53.704;10.004;2023-03-08T02:43:11;-2.50;99.90
45066;DHT22;30830;53.704;10.004;2023-03-08T02:45:36;-2.50;99.90
45066;DHT22;30830;53.704;10.004;2023-03-08T02:48:04;-2.40;99.90
45066;DHT22;30830;53.704;10.004;2023-03-08T02:50:30;-2.40;99.90
45066;DHT22;30830;53.704;10.004;2023-03-08T02:52:56;-2.40;99.90
45066;DHT22;30830;53.704;10.004;2023-03-08T02:55:22;-2.30;99.90
45066;DHT22;30830;53.704;10.004;2023-03-08T02:57:48;-2.30;99.90
45066;DHT22;30830;53.704;10.004;2023-03-08T03:00:14;-2.20;99.90
45066;DHT22;30830;53.704;10.004;2023-03-08T03:02:40;-2.20;99.90
45066;DHT22;30830;53.704;10.004;2023-03-08T03:05:07;-2.10;99.90
45066;DHT22;30830;53.704;10.004;2023-03-08T03:07:36;-2.10;99.90
45066;DHT22;30830;53.704;10.004;2023-03-08T03:10:03;-2.00;99.90
45066;DHT22;30830;53.704;10.004;2023-03-08T03:12:29;-1.90;99.90
45066;DHT22;30830;53.704;10.004;2023-03-08T03:14:55;-1.90;99.90
45066;DHT22;30830;53.704;10.004;2023-03-08T03:17:21;-1.90;99.90
45066;DHT22;30830;53.704;10.004;2023-03-08T03:19:46;-1.90;99.90
45066;DHT22;30830;53.704;10.004;2023-03-08T03:22:12;-1.80;99.90
45066;DHT22;30830;53.704;10.004;2023-03-08T03:24:37;-1.80;99.90
45066;DHT22;30830;53.704;10.004;2023-03-08T03:27:03;-1.70;99.90
45066;DHT22;30830;53.704;10.004;2023-03-08T03:29:29;-1.70;99.90
45066;DHT22;30830;53.704;10.004;2023-03-08T03:31:55;-1.60;99.90
45066;DHT22;30830;53.704;10.004;2023-03-08T03:34:20;-1.60;99.90
45066;DHT22;30830;53.704;10.004;2023-03-08T03:36:46;-1.60;99.90
45066;DHT22;30830;53.704;10.004;2023-03-08T03:39:11;-1.50;99.90
45066;DHT22;30830;53.704;10.004;2023-03-08T03:41:37;-1.60;99.90
45066;DHT22;30830;53.704;10.004;2023-03-08T03:44:03;-1.50;99.90
45066;DHT22;30830;53.704;10.004;2023-03-08T03:46:28;-1.50;99.90
45066;DHT22;30830;53.704;10.004;2023-03-08T03:48:54;-1.50;99.90
45066;DHT22;30830;53.704;10.004;2023-03-08T03:51:22;-1.50;99.90
45066;DHT22;30830;53.704;10.004;2023-03-08T03:53:48;-1.40;99.90
45066;DHT22;30830;53.704;10.004;2023-03-08T03:56:25;-1.40;99.90
45066;DHT22;30830;53.704;10.004;2023-03-08T03:58:51;-1.40;99.90
45066;DHT22;30830;53.704;10.004;2023-03-08T04:01:20;-1.40;99.90
45066;DHT22;30830;53.704;10.004;2023-03-08T04:03:46;-1.30;99.90
45066;DHT22;30830;53.704;10.004;2023-03-08T04:06:17;-1.30;99.90
45066;DHT22;30830;53.704;10.004;2023-03-08T04:08:44;-1.30;99.90
45066;DHT22;30830;53.704;10.004;2023-03-08T04:11:11;-1.30;99.90
45066;DHT22;30830;53.704;10.004;2023-03-08T04:13:38;-1.20;99.90
45066;DHT22;30830;53.704;10.004;2023-03-08T04:16:21;-1.20;99.90
45066;DHT22;30830;53.704;10.004;2023-03-08T04:18:47;-1.20;99.90
45066;DHT22;30830;53.704;10.004;2023-03-08T04:21:16;-1.20;99.90
45066;DHT22;30830;53.704;10.004;2023-03-08T04:23:42;-1.20;99.90
45066;DHT22;30830;53.704;10.004;2023-03-08T04:26:07;-1.10;99.90
45066;DHT22;30830;53.704;10.004;2023-03-08T04:28:33;-1.10;99.90
45066;DHT22;30830;53.704;10.004;2023-03-08T04:31:00;-1.10;99.90
45066;DHT22;30830;53.704;10.004;2023-03-08T04:33:35;-1.00;99.90
45066;DHT22;30830;53.704;10.004;2023-03-08T04:36:00;-1.00;99.90
45066;DHT22;30830;53.704;10.004;2023-03-08T04:38:26;-1.00;99.90
45066;DHT22;30830;53.704;10.004;2023-03-08T04:40:52;-1.00;99.90
45066;DHT22;30830;53.704;10.004;2023-03-08T04:43:27;-1.00;99.90
45066;DHT22;30830;53.704;10.004;2023-03-08T04:45:52;-1.00;99.90
45066;DHT22;30830;53.704;10.004;2023-03-08T04:48:18;-1.00;99.90
45066;DHT22;30830;53.704;10.004;2023-03-08T04:50:50;-1.00;99.90
45066;DHT22;30830;53.704;10.004;2023-03-08T04:53:16;-1.00;99.90
45066;DHT22;30830;53.704;10.004;2023-03-08T04:55:41;-1.00;99.90
45066;DHT22;30830;53.704;10.004;2023-03-08T04:58:07;-1.00;99.90
45066;DHT22;30830;53.704;10.004;2023-03-08T05:00:32;-0.90;99.90
45066;DHT22;30830;53.704;10.004;2023-03-08T05:02:58;-0.90;99.90
45066;DHT22;30830;53.704;10.004;2023-03-08T05:05:23;-0.90;99.90
45066;DHT22;30830;53.704;10.004;2023-03-08T05:07:49;-0.90;99.90
45066;DHT22;30830;53.704;10.004;2023-03-08T05:10:15;-0.80;99.90
45066;DHT22;30830;53.704;10.004;2023-03-08T05:12:40;-0.90;99.90
45066;DHT22;30830;53.704;10.004;2023-03-08T05:15:06;-0.90;99.90
45066;DHT22;30830;53.704;10.004;2023-03-08T05:17:32;-0.90;99.90
45066;DHT22;30830;53.704;10.004;2023-03-08T05:19:57;-0.90;99.90
45066;DHT22;30830;53.704;10.004;2023-03-08T05:22:23;-0.90;99.90
45066;DHT22;30830;53.704;10.004;2023-03-08T05:24:48;-0.80;99.90
45066;DHT22;30830;53.704;10.004;2023-03-08T05:27:15;-0.80;99.90
45066;DHT22;30830;53.704;10.004;2023-03-08T05:29:40;-0.80;99.90
45066;DHT22;30830;53.704;10.004;2023-03-08T05:32:10;-0.80;99.90
45066;DHT22;30830;53.704;10.004;2023-03-08T05:34:35;-0.80;99.90
45066;DHT22;30830;53.704;10.004;2023-03-08T05:37:01;-0.80;99.90
45066;DHT22;30830;53.704;10.004;2023-03-08T05:39:26;-0.80;99.90
45066;DHT22;30830;53.704;10.004;2023-03-08T05:41:54;-0.80;99.90
45066;DHT22;30830;53.704;10.004;2023-03-08T05:44:20;-0.80;99.90
45066;DHT22;30830;53.704;10.004;2023-03-08T05:46:49;-0.80;99.90
45066;DHT22;30830;53.704;10.004;2023-03-08T05:49:14;-0.80;99.90
45066;DHT22;30830;53.704;10.004;2023-03-08T05:51:40;-0.80;99.90
45066;DHT22;30830;53.704;10.004;2023-03-08T05:54:06;-0.80;99.90
45066;DHT22;30830;53.704;10.004;2023-03-08T05:56:31;-0.80;99.90
45066;DHT22;30830;53.704;10.004;2023-03-08T05:58:57;-0.80;99.90
45066;DHT22;30830;53.704;10.004;2023-03-08T06:01:26;-0.70;99.90
45066;DHT22;30830;53.704;10.004;2023-03-08T06:03:55;-0.70;99.90
45066;DHT22;30830;53.704;10.004;2023-03-08T06:06:25;-0.70;99.90
45066;DHT22;30830;53.704;10.004;2023-03-08T06:08:51;-0.80;99.90
45066;DHT22;30830;53.704;10.004;2023-03-08T06:11:17;-0.70;99.90
45066;DHT22;30830;53.704;10.004;2023-03-08T06:13:43;-0.70;99.90
45066;DHT22;30830;53.704;10.004;2023-03-08T06:16:09;-0.70;99.90
45066;DHT22;30830;53.704;10.004;2023-03-08T06:18:36;-0.70;99.90
45066;DHT22;30830;53.704;10.004;2023-03-08T06:21:06;-0.70;99.90
45066;DHT22;30830;53.704;10.004;2023-03-08T06:23:34;-0.70;99.90
45066;DHT22;30830;53.704;10.004;2023-03-08T06:25:59;-0.60;99.90
45066;DHT22;30830;53.704;10.004;2023-03-08T06:28:26;-0.60;99.90
45066;DHT22;30830;53.704;10.004;2023-03-08T06:30:52;-0.60;99.90
45066;DHT22;30830;53.704;10.004;2023-03-08T06:33:19;-0.60;99.90
45066;DHT22;30830;53.704;10.004;2023-03-08T06:36:19;-0.60;99.90
45066;DHT22;30830;53.704;10.004;2023-03-08T06:38:45;-0.60;99.90
45066;DHT22;30830;53.704;10.004;2023-03-08T06:41:12;-0.60;99.90
45066;DHT22;30830;53.704;10.004;2023-03-08T06:43:38;-0.50;99.90
45066;DHT22;30830;53.704;10.004;2023-03-08T06:46:09;-0.50;99.90
45066;DHT22;30830;53.704;10.004;2023-03-08T06:48:35;-0.60;99.90
45066;DHT22;30830;53.704;10.004;2023-03-08T06:51:02;-0.50;99.90
45066;DHT22;30830;53.704;10.004;2023-03-08T06:53:28;-0.50;99.90
45066;DHT22;30830;53.704;10.004;2023-03-08T06:55:53;-0.50;99.90
45066;DHT22;30830;53.704;10.004;2023-03-08T06:58:19;-0.50;99.90
45066;DHT22;30830;53.704;10.004;2023-03-08T07:00:45;-0.50;99.90
45066;DHT22;30830;53.704;10.004;2023-03-08T07:03:12;-0.50;99.90
45066;DHT22;30830;53.704;10.004;2023-03-08T07:05:37;-0.40;99.90
45066;DHT22;30830;53.704;10.004;2023-03-08T07:08:03;-0.40;99.90
45066;DHT22;30830;53.704;10.004;2023-03-08T07:10:29;-0.40;99.90
45066;DHT22;30830;53.704;10.004;2023-03-08T07:12:55;-0.40;99.90
45066;DHT22;30830;53.704;10.004;2023-03-08T07:15:22;-0.40;99.90
45066;DHT22;30830;53.704;10.004;2023-03-08T07:17:49;-0.40;99.90
45066;DHT22;30830;53.704;10.004;2023-03-08T07:20:17;-0.30;99.90
45066;DHT22;30830;53.704;10.004;2023-03-08T07:22:44;-0.30;99.90
45066;DHT22;30830;53.704;10.004;2023-03-08T07:25:11;-0.40;99.90
45066;DHT22;30830;53.704;10.004;2023-03-08T07:27:37;-0.30;99.90
45066;DHT22;30830;53.704;10.004;2023-03-08T07:30:03;-0.30;99.90
45066;DHT22;30830;53.704;10.004;2023-03-08T07:32:28;-0.30;99.90
45066;DHT22;30830;53.704;10.004;2023-03-08T07:34:55;-0.30;99.90
45066;DHT22;30830;53.704;10.004;2023-03-08T07:37:20;-0.30;99.90
45066;DHT22;30830;53.704;10.004;2023-03-08T07:39:46;-0.20;99.90
45066;DHT22;30830;53.704;10.004;2023-03-08T07:42:12;-0.20;99.90
45066;DHT22;30830;53.704;10.004;2023-03-08T07:44:37;-0.20;99.90
45066;DHT22;30830;53.704;10.004;2023-03-08T07:47:07;-0.20;99.90
45066;DHT22;30830;53.704;10.004;2023-03-08T07:49:33;-0.20;99.90
45066;DHT22;30830;53.704;10.004;2023-03-08T07:51:58;-0.20;99.90
45066;DHT22;30830;53.704;10.004;2023-03-08T07:54:24;-0.20;99.90
45066;DHT22;30830;53.704;10.004;2023-03-08T07:56:53;-0.20;99.90
45066;DHT22;30830;53.704;10.004;2023-03-08T07:59:21;-0.10;99.90
45066;DHT22;30830;53.704;10.004;2023-03-08T08:01:47;-0.10;99.90
45066;DHT22;30830;53.704;10.004;2023-03-08T08:04:13;0.00;99.90
45066;DHT22;30830;53.704;10.004;2023-03-08T08:06:39;0.00;99.90
45066;DHT22;30830;53.704;10.004;2023-03-08T08:09:06;0.10;99.90
45066;DHT22;30830;53.704;10.004;2023-03-08T08:11:32;0.10;99.90
45066;DHT22;30830;53.704;10.004;2023-03-08T08:13:59;0.20;99.90
45066;DHT22;30830;53.704;10.004;2023-03-08T08:16:24;0.30;99.90
45066;DHT22;30830;53.704;10.004;2023-03-08T08:18:51;0.30;99.90
45066;DHT22;30830;53.704;10.004;2023-03-08T08:21:17;0.30;99.90
45066;DHT22;30830;53.704;10.004;2023-03-08T08:23:43;0.30;99.90
45066;DHT22;30830;53.704;10.004;2023-03-08T08:26:12;0.30;99.90
45066;DHT22;30830;53.704;10.004;2023-03-08T08:28:40;0.30;99.90
45066;DHT22;30830;53.704;10.004;2023-03-08T08:31:09;0.30;99.90
45066;DHT22;30830;53.704;10.004;2023-03-08T08:33:35;0.30;99.90
45066;DHT22;30830;53.704;10.004;2023-03-08T08:36:06;0.40;99.90
45066;DHT22;30830;53.704;10.004;2023-03-08T08:38:33;0.40;99.90
45066;DHT22;30830;53.704;10.004;2023-03-08T08:41:03;0.50;99.90
45066;DHT22;30830;53.704;10.004;2023-03-08T08:43:29;0.50;99.90
45066;DHT22;30830;53.704;10.004;2023-03-08T08:45:57;0.50;99.90
45066;DHT22;30830;53.704;10.004;2023-03-08T08:48:23;0.60;99.90
45066;DHT22;30830;53.704;10.004;2023-03-08T08:50:49;0.70;99.90
45066;DHT22;30830;53.704;10.004;2023-03-08T08:53:15;0.70;99.90
45066;DHT22;30830;53.704;10.004;2023-03-08T08:55:40;0.70;99.90
45066;DHT22;30830;53.704;10.004;2023-03-08T08:58:06;0.70;99.90
45066;DHT22;30830;53.704;10.004;2023-03-08T09:00:33;0.70;99.90
45066;DHT22;30830;53.704;10.004;2023-03-08T09:03:02;0.70;99.90
45066;DHT22;30830;53.704;10.004;2023-03-08T09:05:28;0.80;99.90
45066;DHT22;30830;53.704;10.004;2023-03-08T09:07:55;0.70;99.90
45066;DHT22;30830;53.704;10.004;2023-03-08T09:10:23;0.80;99.90
45066;DHT22;30830;53.704;10.004;2023-03-08T09:12:48;0.80;99.90
45066;DHT22;30830;53.704;10.004;2023-03-08T09:15:14;0.70;99.90
45066;DHT22;30830;53.704;10.004;2023-03-08T09:17:39;0.70;99.90
45066;DHT22;30830;53.704;10.004;2023-03-08T09:20:06;0.80;99.90
45066;DHT22;30830;53.704;10.004;2023-03-08T09:22:35;0.90;99.90
45066;DHT22;30830;53.704;10.004;2023-03-08T09:25:00;1.00;99.90
45066;DHT22;30830;53.704;10.004;2023-03-08T09:27:26;1.10;99.90
45066;DHT22;30830;53.704;10.004;2023-03-08T09:29:51;1.10;99.90
45066;DHT22;30830;53.704;10.004;2023-03-08T09:32:17;1.20;99.90
45066;DHT22;30830;53.704;10.004;2023-03-08T09:34:42;1.20;99.90
45066;DHT22;30830;53.704;10.004;2023-03-08T09:37:10;1.30;99.90
45066;DHT22;30830;53.704;10.004;2023-03-08T09:39:35;1.30;99.90
45066;DHT22;30830;53.704;10.004;2023-03-08T09:42:03;1.40;99.90
45066;DHT22;30830;53.704;10.004;2023-03-08T09:52:44;1.50;99.90
45066;DHT22;30830;53.704;10.004;2023-03-08T09:57:53;1.60;99.90
45066;DHT22;30830;53.704;10.004;2023-03-08T10:00:39;1.60;99.90
45066;DHT22;30830;53.704;10.004;2023-03-08T10:03:44;1.50;99.90
45066;DHT22;30830;53.704;10.004;2023-03-08T10:06:27;1.50;99.90
45066;DHT22;30830;53.704;10.004;2023-03-08T10:09:05;1.50;99.90
45066;DHT22;30830;53.704;10.004;2023-03-08T10:11:42;1.60;99.90
45066;DHT22;30830;53.704;10.004;2023-03-08T10:14:30;1.60;99.90
45066;DHT22;30830;53.704;10.004;2023-03-08T10:17:19;1.60;99.90
45066;DHT22;30830;53.704;10.004;2023-03-08T10:19:56;1.60;99.90
45066;DHT22;30830;53.704;10.004;2023-03-08T10:22:31;1.70;99.90
45066;DHT22;30830;53.704;10.004;2023-03-08T10:25:14;1.70;99.90
45066;DHT22;30830;53.704;10.004;2023-03-08T10:27:41;1.60;99.90
45066;DHT22;30830;53.704;10.004;2023-03-08T10:30:14;1.60;99.90
45066;DHT22;30830;53.704;10.004;2023-03-08T10:32:44;1.60;99.90
45066;DHT22;30830;53.704;10.004;2023-03-08T10:35:10;1.60;99.90
45066;DHT22;30830;53.704;10.004;2023-03-08T10:37:36;1.60;99.90
45066;DHT22;30830;53.704;10.004;2023-03-08T10:40:13;1.60;99.90
45066;DHT22;30830;53.704;10.004;2023-03-08T10:42:46;1.60;99.90
45066;DHT22;30830;53.704;10.004;2023-03-08T10:45:16;1.70;99.90
45066;DHT22;30830;53.704;10.004;2023-03-08T10:48:15;1.70;99.90
45066;DHT22;30830;53.704;10.004;2023-03-08T10:50:43;1.80;99.90
45066;DHT22;30830;53.704;10.004;2023-03-08T10:53:15;1.80;99.90
45066;DHT22;30830;53.704;10.004;2023-03-08T10:55:46;1.90;99.90
45066;DHT22;30830;53.704;10.004;2023-03-08T10:58:41;1.90;99.90
45066;DHT22;30830;53.704;10.004;2023-03-08T11:01:27;2.00;99.90
45066;DHT22;30830;53.704;10.004;2023-03-08T11:04:04;2.00;99.90
45066;DHT22;30830;53.704;10.004;2023-03-08T11:06:30;2.00;99.90
45066;DHT22;30830;53.704;10.004;2023-03-08T11:08:59;2.10;99.90
45066;DHT22;30830;53.704;10.004;2023-03-08T11:11:26;2.10;99.90
45066;DHT22;30830;53.704;10.004;2023-03-08T11:13:53;2.20;99.90
45066;DHT22;30830;53.704;10.004;2023-03-08T11:16:41;2.30;99.90
45066;DHT22;30830;53.704;10.004;2023-03-08T11:36:04;2.70;99.90
45066;DHT22;30830;53.704;10.004;2023-03-08T11:38:24;2.80;99.90
45066;DHT22;30830;53.704;10.004;2023-03-08T11:44:11;3.10;99.90
45066;DHT22;30830;53.704;10.004;2023-03-08T11:49:47;3.20;99.90
45066;DHT22;30830;53.704;10.004;2023-03-08T11:52:49;3.50;99.90
45066;DHT22;30830;53.704;10.004;2023-03-08T12:01:03;3.60;99.90
45066;DHT22;30830;53.704;10.004;2023-03-08T12:03:38;3.60;99.90
45066;DHT22;30830;53.704;10.004;2023-03-08T12:06:11;3.60;99.90
45066;DHT22;30830;53.704;10.004;2023-03-08T12:08:45;3.60;99.90
45066;DHT22;30830;53.704;10.004;2023-03-08T12:11:26;3.60;99.90
45066;DHT22;30830;53.704;10.004;2023-03-08T12:14:25;3.60;99.90
45066;DHT22;30830;53.704;10.004;2023-03-08T12:17:01;3.60;99.90
45066;DHT22;30830;53.704;10.004;2023-03-08T12:19:45;3.70;99.90
45066;DHT22;30830;53.704;10.004;2023-03-08T12:25:22;3.80;99.90
45066;DHT22;30830;53.704;10.004;2023-03-08T12:28:08;3.80;99.90
45066;DHT22;30830;53.704;10.004;2023-03-08T12:30:50;3.90;99.90
45066;DHT22;30830;53.704;10.004;2023-03-08T12:33:18;4.00;99.90
45066;DHT22;30830;53.704;10.004;2023-03-08T12:36:02;4.10;99.90
45066;DHT22;30830;53.704;10.004;2023-03-08T12:38:42;4.20;99.90
45066;DHT22;30830;53.704;10.004;2023-03-08T12:41:29;4.40;99.90
45066;DHT22;30830;53.704;10.004;2023-03-08T12:44:03;4.50;99.90
45066;DHT22;30830;53.704;10.004;2023-03-08T12:46:53;4.60;99.90
45066;DHT22;30830;53.704;10.004;2023-03-08T12:52:01;4.60;99.90
45066;DHT22;30830;53.704;10.004;2023-03-08T12:54:30;4.70;99.90
45066;DHT22;30830;53.704;10.004;2023-03-08T12:56:57;4.60;99.90
45066;DHT22;30830;53.704;10.004;2023-03-08T12:59:37;4.60;99.90
45066;DHT22;30830;53.704;10.004;2023-03-08T13:02:26;4.50;99.90
45066;DHT22;30830;53.704;10.004;2023-03-08T13:07:59;4.60;99.90
45066;DHT22;30830;53.704;10.004;2023-03-08T13:10:37;4.60;99.90
45066;DHT22;30830;53.704;10.004;2023-03-08T13:13:29;4.60;99.90
45066;DHT22;30830;53.704;10.004;2023-03-08T13:16:48;4.50;99.90
45066;DHT22;30830;53.704;10.004;2023-03-08T13:18:58;4.60;99.90
45066;DHT22;30830;53.704;10.004;2023-03-08T13:21:32;4.60;99.90
45066;DHT22;30830;53.704;10.004;2023-03-08T13:24:25;4.50;99.90
45066;DHT22;30830;53.704;10.004;2023-03-08T13:29:42;4.50;99.90
45066;DHT22;30830;53.704;10.004;2023-03-08T13:32:20;4.60;99.90
45066;DHT22;30830;53.704;10.004;2023-03-08T13:35:00;4.50;99.90
45066;DHT22;30830;53.704;10.004;2023-03-08T13:37:28;4.50;99.90
45066;DHT22;30830;53.704;10.004;2023-03-08T13:39:56;4.50;99.90
45066;DHT22;30830;53.704;10.004;2023-03-08T13:42:23;4.60;99.90
45066;DHT22;30830;53.704;10.004;2023-03-08T13:44:50;4.60;99.90
45066;DHT22;30830;53.704;10.004;2023-03-08T13:47:25;4.50;99.90
45066;DHT22;30830;53.704;10.004;2023-03-08T13:49:53;4.60;99.90
45066;DHT22;30830;53.704;10.004;2023-03-08T13:52:23;4.60;99.90
45066;DHT22;30830;53.704;10.004;2023-03-08T13:54:56;4.70;99.90
45066;DHT22;30830;53.704;10.004;2023-03-08T13:57:34;4.60;99.90
45066;DHT22;30830;53.704;10.004;2023-03-08T14:03:02;4.60;99.90
45066;DHT22;30830;53.704;10.004;2023-03-08T14:05:32;4.60;99.90
45066;DHT22;30830;53.704;10.004;2023-03-08T14:08:00;4.60;99.90
45066;DHT22;30830;53.704;10.004;2023-03-08T14:10:40;4.70;99.90
45066;DHT22;30830;53.704;10.004;2023-03-08T14:13:16;4.80;99.90
45066;DHT22;30830;53.704;10.004;2023-03-08T14:15:57;4.80;99.90
45066;DHT22;30830;53.704;10.004;2023-03-08T14:18:37;4.90;99.90
45066;DHT22;30830;53.704;10.004;2023-03-08T14:21:24;5.00;99.90
45066;DHT22;30830;53.704;10.004;2023-03-08T14:23:56;5.00;99.90
45066;DHT22;30830;53.704;10.004;2023-03-08T14:26:32;5.00;99.90
45066;DHT22;30830;53.704;10.004;2023-03-08T14:29:19;5.00;99.90
45066;DHT22;30830;53.704;10.004;2023-03-08T14:34:39;5.00;99.90
45066;DHT22;30830;53.704;10.004;2023-03-08T14:39:49;4.90;99.90
45066;DHT22;30830;53.704;10.004;2023-03-08T14:42:43;4.80;99.90
45066;DHT22;30830;53.704;10.004;2023-03-08T14:47:58;4.70;99.90
45066;DHT22;30830;53.704;10.004;2023-03-08T14:50:54;4.70;99.90
45066;DHT22;30830;53.704;10.004;2023-03-08T14:55:54;4.50;99.90
45066;DHT22;30830;53.704;10.004;2023-03-08T14:58:24;4.40;99.90
45066;DHT22;30830;53.704;10.004;2023-03-08T15:00:53;4.40;99.90
45066;DHT22;30830;53.704;10.004;2023-03-08T15:03:19;4.20;99.90
45066;DHT22;30830;53.704;10.004;2023-03-08T15:05:45;4.10;99.90
45066;DHT22;30830;53.704;10.004;2023-03-08T15:08:12;4.10;99.90
45066;DHT22;30830;53.704;10.004;2023-03-08T15:10:47;4.10;99.90
45066;DHT22;30830;53.704;10.004;2023-03-08T15:13:21;4.10;99.90
45066;DHT22;30830;53.704;10.004;2023-03-08T15:15:48;4.00;99.90
45066;DHT22;30830;53.704;10.004;2023-03-08T15:18:13;4.00;99.90
45066;DHT22;30830;53.704;10.004;2023-03-08T15:20:42;4.00;99.90
45066;DHT22;30830;53.704;10.004;2023-03-08T15:23:24;4.00;99.90
45066;DHT22;30830;53.704;10.004;2023-03-08T15:25:50;4.00;99.90
45066;DHT22;30830;53.704;10.004;2023-03-08T15:28:17;3.90;99.90
45066;DHT22;30830;53.704;10.004;2023-03-08T15:30:43;3.80;99.90
45066;DHT22;30830;53.704;10.004;2023-03-08T15:33:09;3.80;99.90
45066;DHT22;30830;53.704;10.004;2023-03-08T15:35:39;3.80;99.90
45066;DHT22;30830;53.704;10.004;2023-03-08T15:38:05;3.80;99.90
45066;DHT22;30830;53.704;10.004;2023-03-08T15:40:32;3.80;99.90
45066;DHT22;30830;53.704;10.004;2023-03-08T15:42:58;3.70;99.90
45066;DHT22;30830;53.704;10.004;2023-03-08T15:45:23;3.60;99.90
45066;DHT22;30830;53.704;10.004;2023-03-08T15:48:02;3.60;99.90
45066;DHT22;30830;53.704;10.004;2023-03-08T15:50:29;3.50;99.90
45066;DHT22;30830;53.704;10.004;2023-03-08T15:52:56;3.40;99.90
45066;DHT22;30830;53.704;10.004;2023-03-08T15:55:23;3.30;99.90
45066;DHT22;30830;53.704;10.004;2023-03-08T15:57:49;3.30;99.90
45066;DHT22;30830;53.704;10.004;2023-03-08T16:00:16;3.30;99.90
45066;DHT22;30830;53.704;10.004;2023-03-08T16:02:42;3.30;99.90
45066;DHT22;30830;53.704;10.004;2023-03-08T16:05:10;3.30;99.90
45066;DHT22;30830;53.704;10.004;2023-03-08T16:07:36;3.30;99.90
45066;DHT22;30830;53.704;10.004;2023-03-08T16:10:03;3.30;99.90
45066;DHT22;30830;53.704;10.004;2023-03-08T16:12:28;3.30;99.90
45066;DHT22;30830;53.704;10.004;2023-03-08T16:14:54;3.30;99.90
45066;DHT22;30830;53.704;10.004;2023-03-08T16:17:21;3.20;99.90
45066;DHT22;30830;53.704;10.004;2023-03-08T16:19:47;3.20;99.90
45066;DHT22;30830;53.704;10.004;2023-03-08T16:22:12;3.20;99.90
45066;DHT22;30830;53.704;10.004;2023-03-08T16:24:38;3.10;99.90
45066;DHT22;30830;53.704;10.004;2023-03-08T16:27:03;3.20;99.90
45066;DHT22;30830;53.704;10.004;2023-03-08T16:29:31;3.10;99.90
45066;DHT22;30830;53.704;10.004;2023-03-08T16:31:56;3.10;99.90
45066;DHT22;30830;53.704;10.004;2023-03-08T16:34:23;3.00;99.90
45066;DHT22;30830;53.704;10.004;2023-03-08T16:36:50;3.00;99.90
45066;DHT22;30830;53.704;10.004;2023-03-08T16:39:15;2.90;99.90
45066;DHT22;30830;53.704;10.004;2023-03-08T16:41:41;2.80;99.90
45066;DHT22;30830;53.704;10.004;2023-03-08T16:44:07;2.70;99.90
45066;DHT22;30830;53.704;10.004;2023-03-08T16:46:40;2.60;99.90
45066;DHT22;30830;53.704;10.004;2023-03-08T16:49:06;2.60;99.90